Time;durP1;ratioP1;P1;durP2;ratioP2;P2;SDS_P1;SDS_P2;PMS_P1;PMS_P2;Temp;Humidity;BMP_temperature;BMP_pressure;BME280_temperature;BME280_humidity;BME280_pressure;Samples;Min_cycle;Max_cycle;Signal;HPM_P1;HPM_P2
2023/07/23 00:03:50;;;;;;;3.25;1.50;;;;;;;16.17;77.38;99953.22;10553917;28;20036;-74
2023/07/23 00:08:52;;;;;;;2.10;1.83;;;;;;;16.48;76.37;99945.31;10571863;28;20457;-74
2023/07/23 00:13:55;;;;;;;2.78;1.88;;;;;;;16.29;76.64;99944.97;10554382;28;20048;-74
2023/07/23 00:18:58;;;;;;;2.30;1.42;;;;;;;16.42;77.07;99954.19;10571612;28;20047;-74
2023/07/23 00:24:00;;;;;;;2.15;1.60;;;;;;;16.07;78.33;99945.28;10571615;28;20040;-74
2023/07/23 00:29:03;;;;;;;2.42;1.80;;;;;;;16.42;77.41;99941.16;10571122;28;20048;-74
2023/07/23 00:34:06;;;;;;;3.15;1.60;;;;;;;16.34;77.91;99961.41;10570793;28;20058;-74
2023/07/23 00:39:08;;;;;;;3.78;1.80;;;;;;;16.55;76.50;99947.56;10552663;28;20040;-74
2023/07/23 00:44:10;;;;;;;1.60;1.35;;;;;;;16.28;77.69;99957.19;10570494;28;20438;-74
2023/07/23 00:49:13;;;;;;;2.40;1.60;;;;;;;16.01;78.71;99946.63;10551924;28;20055;-74
2023/07/23 00:54:16;;;;;;;3.63;1.80;;;;;;;15.98;78.50;99945.34;10563027;28;20126;-74
2023/07/23 00:59:18;;;;;;;4.80;2.10;;;;;;;15.72;79.32;99948.25;10510019;28;20051;-74
2023/07/23 01:04:20;;;;;;;2.60;1.52;;;;;;;15.83;79.58;99943.16;10527460;28;20048;-74
2023/07/23 01:09:25;;;;;;;3.00;1.45;;;;;;;15.54;79.94;99950.22;10509653;28;20410;-74
2023/07/23 01:14:27;;;;;;;2.55;1.60;;;;;;;15.82;79.10;99950.66;10510205;28;20044;-74
2023/07/23 01:19:29;;;;;;;4.35;1.48;;;;;;;15.81;78.99;99943.50;10527135;28;20060;-74
2023/07/23 01:24:34;;;;;;;3.22;1.77;;;;;;;16.01;78.44;99943.88;10527109;28;20869;-74
2023/07/23 01:29:36;;;;;;;4.20;1.60;;;;;;;15.50;80.48;99945.72;10509119;28;20048;-74
2023/07/23 01:34:39;;;;;;;2.25;1.30;;;;;;;15.89;78.95;99942.63;10527582;28;20048;-74
2023/07/23 01:39:42;;;;;;;1.73;1.23;;;;;;;15.89;78.44;99934.31;10512548;28;20041;-74
2023/07/23 01:44:44;;;;;;;1.77;1.30;;;;;;;15.94;78.29;99947.97;10527311;28;20056;-74
2023/07/23 01:49:47;;;;;;;2.25;1.30;;;;;;;16.15;77.24;99952.75;10525698;28;20105;-74
2023/07/23 01:54:49;;;;;;;3.25;1.45;;;;;;;15.91;78.30;99947.81;10526169;28;20514;-74
2023/07/23 01:59:51;;;;;;;3.50;1.50;;;;;;;15.96;78.49;99947.63;10526105;28;20052;-74
2023/07/23 02:04:53;;;;;;;1.63;1.20;;;;;;;16.03;78.17;99941.59;10526245;28;20052;-74
2023/07/23 02:09:55;;;;;;;4.32;1.90;;;;;;;16.85;75.60;99940.84;10508430;28;20032;-74
2023/07/23 02:14:58;;;;;;;2.70;1.50;;;;;;;17.44;73.45;99939.72;10508857;28;20390;-74
2023/07/23 02:20:00;;;;;;;2.85;1.10;;;;;;;18.11;70.95;99929.25;10516033;28;20047;-74
2023/07/23 02:25:02;;;;;;;1.75;1.15;;;;;;;17.88;71.95;99928.94;10533955;28;20040;-74
2023/07/23 02:30:05;;;;;;;2.08;1.25;;;;;;;17.55;73.88;99917.91;10533449;28;20049;-74
2023/07/23 02:35:07;;;;;;;2.03;1.42;;;;;;;17.82;72.89;99911.69;10515654;28;20049;-74
2023/07/23 02:40:10;;;;;;;2.92;1.10;;;;;;;17.86;72.32;99912.59;10515922;28;20082;-74
2023/07/23 02:45:12;;;;;;;2.00;1.30;;;;;;;18.20;71.65;99911.28;10532862;28;20044;-74
2023/07/23 02:50:14;;;;;;;2.15;1.20;;;;;;;18.31;71.08;99912.44;10532825;28;20044;-74
2023/07/23 02:55:16;;;;;;;2.58;1.17;;;;;;;18.56;69.89;99915.13;10532196;28;20047;-74
2023/07/23 03:00:18;;;;;;;3.47;1.15;;;;;;;18.75;69.07;99920.91;10514592;28;20530;-74
2023/07/23 03:05:21;;;;;;;2.75;1.10;;;;;;;19.41;67.98;99911.16;10514881;28;20036;-74
2023/07/23 03:10:23;;;;;;;3.50;1.10;;;;;;;19.72;65.63;99916.75;10532955;28;20037;-73
2023/07/23 03:15:25;;;;;;;2.65;1.40;;;;;;;19.44;65.87;99911.28;10531823;28;20037;-74
2023/07/23 03:20:27;;;;;;;3.08;1.20;;;;;;;20.17;63.37;99905.13;10531919;28;20037;-74
2023/07/23 03:25:29;;;;;;;2.90;1.00;;;;;;;20.93;61.68;99915.88;10513745;28;20150;-74
2023/07/23 03:30:31;;;;;;;3.35;1.08;;;;;;;21.20;59.52;99902.88;10512213;28;20040;-73
2023/07/23 03:35:34;;;;;;;2.53;1.20;;;;;;;21.75;58.01;99907.03;10530955;28;20423;-73
2023/07/23 03:40:37;;;;;;;2.38;1.30;;;;;;;20.90;59.54;99905.47;10513613;28;20051;-73
2023/07/23 03:45:39;;;;;;;2.20;1.15;;;;;;;20.03;62.41;99906.75;10572499;28;20560;-73
2023/07/23 03:50:42;;;;;;;2.50;1.25;;;;;;;18.89;66.01;99914.94;10554386;28;20060;-73
2023/07/23 03:55:44;;;;;;;2.03;1.10;;;;;;;18.32;68.39;99902.94;10554081;28;20442;-73
2023/07/23 04:00:46;;;;;;;2.25;1.33;;;;;;;18.31;68.30;99908.84;10572637;28;20047;-73
2023/07/23 04:05:48;;;;;;;2.88;1.15;;;;;;;18.20;69.33;99916.03;10571637;28;20040;-73
2023/07/23 04:10:54;;;;;;;2.50;1.00;;;;;;;18.52;68.41;99912.25;10553688;28;20043;-73
2023/07/23 04:15:56;;;;;;;1.00;0.90;;;;;;;18.88;65.91;99903.00;10571444;28;20651;-73
2023/07/23 04:20:58;;;;;;;1.67;0.90;;;;;;;19.36;64.21;99912.25;10571367;28;20048;-73
2023/07/23 04:26:00;;;;;;;4.07;1.00;;;;;;;18.86;65.42;99905.34;10552936;28;20047;-73
2023/07/23 04:31:02;;;;;;;1.58;1.13;;;;;;;18.84;64.45;99913.22;10571703;28;20040;-73
2023/07/23 04:36:06;;;;;;;2.28;0.90;;;;;;;19.67;62.04;99916.22;10570595;28;20050;-73
2023/07/23 04:41:09;;;;;;;4.20;1.00;;;;;;;19.82;61.34;99918.19;10570555;28;20547;-73
2023/07/23 04:46:12;;;;;;;3.00;1.05;;;;;;;19.79;60.88;99918.94;10551967;28;20071;-73
2023/07/23 04:51:14;;;;;;;2.22;1.05;;;;;;;19.49;62.32;99921.31;10569941;28;20048;-74
2023/07/23 04:56:16;;;;;;;2.95;0.98;;;;;;;19.80;60.61;99921.34;10570090;28;20051;-73
2023/07/23 05:01:18;;;;;;;2.10;0.95;;;;;;;19.17;61.92;99923.25;10569779;28;20051;-73
2023/07/23 05:06:20;;;;;;;1.88;1.20;;;;;;;18.65;63.41;99922.22;10569556;28;20051;-73
2023/07/23 05:11:22;;;;;;;1.70;0.90;;;;;;;18.52;64.02;99925.34;10569492;28;20055;-73
2023/07/23 05:16:24;;;;;;;2.42;1.30;;;;;;;18.38;64.33;99934.06;10569218;28;20051;-73
2023/07/23 05:21:27;;;;;;;3.58;1.10;;;;;;;18.27;64.23;99921.84;10569160;28;20284;-73
2023/07/23 05:26:29;;;;;;;2.92;2.20;;;;;;;18.03;64.58;99925.44;10550622;28;20075;-73
2023/07/23 05:31:31;;;;;;;2.70;1.15;;;;;;;17.85;65.78;99922.09;10569368;28;20043;-73
2023/07/23 05:36:33;;;;;;;1.27;0.90;;;;;;;17.94;65.95;99920.00;10569619;28;20498;-73
2023/07/23 05:41:35;;;;;;;0.75;0.65;;;;;;;18.01;65.44;99919.41;10563287;28;20127;-73
2023/07/23 05:46:37;;;;;;;1.30;0.80;;;;;;;17.81;66.03;99914.81;10568506;28;20067;-74
2023/07/23 05:51:40;;;;;;;1.50;0.80;;;;;;;18.19;64.65;99915.22;10570724;28;20044;-73
2023/07/23 05:56:42;;;;;;;1.85;0.95;;;;;;;18.26;65.18;99903.56;10577386;28;20047;-73
2023/07/23 06:01:45;;;;;;;1.65;1.02;;;;;;;17.98;65.97;99906.25;10576771;28;20056;-73
2023/07/23 06:06:47;;;;;;;2.92;1.00;;;;;;;18.11;65.53;99905.06;10574394;28;20447;-73
2023/07/23 06:11:51;;;;;;;1.70;0.93;;;;;;;18.14;64.76;99904.38;10533145;28;20056;-73
2023/07/23 06:16:54;;;;;;;3.33;1.08;;;;;;;18.14;63.80;99901.59;10534068;28;20052;-73
2023/07/23 06:21:56;;;;;;;1.33;0.90;;;;;;;18.74;62.73;99899.81;10516141;28;20058;-73
2023/07/23 06:26:58;;;;;;;3.58;0.82;;;;;;;18.75;61.91;99895.09;10533584;28;20071;-73
2023/07/23 06:32:00;;;;;;;3.22;0.75;;;;;;;19.07;60.47;99893.97;10515607;28;20044;-73
2023/07/23 06:37:02;;;;;;;1.10;0.90;;;;;;;19.55;58.32;99897.63;10533313;28;20510;-73
2023/07/23 06:42:05;;;;;;;1.65;0.90;;;;;;;19.39;57.99;99891.22;10532835;28;20056;-73
2023/07/23 06:47:07;;;;;;;1.38;0.77;;;;;;;19.69;57.04;99899.97;10532727;28;20075;-73
2023/07/23 06:52:10;;;;;;;1.88;0.77;;;;;;;19.59;58.14;99898.53;10532826;28;20051;-73
2023/07/23 06:57:12;;;;;;;1.02;0.70;;;;;;;19.58;58.10;99897.72;10515848;28;20048;-73
2023/07/23 07:02:15;;;;;;;4.13;0.90;;;;;;;20.05;57.26;99882.94;10515231;28;20507;-73
2023/07/23 07:07:17;;;;;;;2.25;0.80;;;;;;;20.03;57.05;99890.03;10535267;28;20525;-73
2023/07/23 07:12:20;;;;;;;1.00;0.65;;;;;;;20.37;55.25;99891.22;10513992;28;20045;-73
2023/07/23 07:17:22;;;;;;;1.48;0.63;;;;;;;20.23;55.95;99888.09;10531216;28;20044;-73
2023/07/23 07:22:25;;;;;;;0.93;0.70;;;;;;;20.17;56.41;99888.41;10532264;28;20044;-74
2023/07/23 07:27:27;;;;;;;1.10;0.70;;;;;;;19.92;57.23;99884.22;10513531;28;20426;-74
2023/07/23 07:32:29;;;;;;;5.05;1.00;;;;;;;19.60;58.15;99889.00;10531353;28;20044;-73
2023/07/23 07:37:31;;;;;;;2.20;0.88;;;;;;;20.58;55.82;99891.69;10531530;28;20530;-73
2023/07/23 07:42:33;;;;;;;0.98;0.85;;;;;;;21.16;53.91;99893.59;10512962;28;20036;-73
2023/07/23 07:47:35;;;;;;;2.05;0.70;;;;;;;20.59;56.34;99884.94;10530696;28;20068;-73
2023/07/23 07:52:38;;;;;;;2.92;0.82;;;;;;;20.77;55.07;99890.88;10530080;28;20715;-73
2023/07/23 07:57:40;;;;;;;0.80;0.77;;;;;;;21.35;54.51;99888.81;10512525;28;20032;-73
2023/07/23 08:02:43;;;;;;;0.90;0.70;;;;;;;20.22;55.67;99886.50;10533597;28;20506;-73
2023/07/23 08:07:46;;;;;;;1.42;0.77;;;;;;;20.27;56.53;99889.78;10529825;28;20083;-73
2023/07/23 08:12:48;;;;;;;1.45;0.82;;;;;;;20.28;56.65;99890.59;10529288;28;20041;-73
2023/07/23 08:17:51;;;;;;;1.17;0.80;;;;;;;20.31;56.88;99889.88;10511444;28;20052;-73
2023/07/23 08:22:54;;;;;;;2.40;0.90;;;;;;;19.72;58.44;99890.91;10529491;28;20051;-73
2023/07/23 08:28:02;;;;;;;2.58;1.00;;;;;;;19.22;60.67;99895.16;10510904;28;20040;-73
2023/07/23 08:33:06;;;;;;;4.22;0.88;;;;;;;18.98;62.66;99879.44;10529350;28;20051;-73
2023/07/23 08:38:10;;;;;;;2.38;0.98;;;;;;;18.73;63.19;99886.28;10510984;28;20040;-73
2023/07/23 08:43:29;;;;;;;2.50;1.15;;;;;;;19.72;60.18;99882.56;10528171;28;20533;-73
2023/07/23 08:49:06;;;;;;;1.25;1.10;;;;;;;19.82;60.06;99874.47;10528225;28;20067;-74
2023/07/23 08:54:09;;;;;;;3.35;0.90;;;;;;;22.17;52.96;99875.38;10528013;28;20166;-74
2023/07/23 08:59:11;;;;;;;0.98;0.77;;;;;;;22.20;53.63;99875.41;10527938;28;20040;-73
2023/07/23 09:04:14;;;;;;;1.63;0.80;;;;;;;22.62;51.81;99882.75;10527932;28;20039;-72
2023/07/23 09:09:16;;;;;;;1.00;0.90;;;;;;;23.87;48.46;99884.03;10527331;28;20071;-74
2023/07/23 09:14:18;;;;;;;1.85;1.13;;;;;;;24.99;47.28;99884.19;10526838;28;20056;-74
2023/07/23 09:19:26;;;;;;;1.02;0.95;;;;;;;24.69;45.99;99876.09;10509636;28;20041;-74
2023/07/23 09:24:33;;;;;;;2.03;0.90;;;;;;;25.17;44.84;99876.69;10509785;28;20049;-74
2023/07/23 09:29:37;;;;;;;1.30;1.13;;;;;;;24.50;46.76;99866.81;10527019;28;20507;-74
2023/07/23 09:34:45;;;;;;;2.75;1.20;;;;;;;23.13;49.74;99874.56;10527940;28;20055;-74
2023/07/23 09:39:48;;;;;;;1.23;1.05;;;;;;;21.61;52.55;99874.09;10515298;28;20526;-74
2023/07/23 09:44:51;;;;;;;1.38;0.75;;;;;;;21.70;52.65;99879.44;10509058;28;20068;-74
2023/07/23 09:49:54;;;;;;;1.25;0.93;;;;;;;21.50;52.47;99872.31;10508514;28;20052;-74
2023/07/23 09:54:56;;;;;;;3.15;0.90;;;;;;;21.41;53.25;99875.34;10526506;28;20040;-74
2023/07/23 10:00:01;;;;;;;1.05;0.85;;;;;;;21.07;54.42;99875.13;10508695;28;20055;-74
2023/07/23 10:05:05;;;;;;;1.85;0.95;;;;;;;21.21;54.02;99877.38;10526029;28;20045;-74
2023/07/23 10:10:08;;;;;;;0.80;0.70;;;;;;;21.01;54.54;99881.38;10508519;28;20044;-74
2023/07/23 10:15:10;;;;;;;1.00;0.90;;;;;;;21.41;54.20;99889.31;10508408;28;20414;-74
2023/07/23 10:20:14;;;;;;;3.30;1.00;;;;;;;20.89;55.16;99892.69;10508359;28;20044;-74
2023/07/23 10:25:31;;;;;;;1.63;1.10;;;;;;;20.72;56.78;99889.19;10508682;28;20060;-74
2023/07/23 10:30:34;;;;;;;0.80;0.80;;;;;;;20.69;58.23;99892.72;10512579;28;20041;-74
2023/07/23 10:36:04;;;;;;;1.88;1.40;;;;;;;20.88;57.78;99889.09;10450873;28;20055;-74
2023/07/23 10:41:07;;;;;;;1.13;0.98;;;;;;;21.04;57.24;99880.66;10492934;28;20538;-74
2023/07/23 10:46:14;;;;;;;1.55;0.80;;;;;;;21.07;55.82;99882.69;10491532;28;20048;-74
2023/07/23 10:51:17;;;;;;;;;;;;;;;21.32;54.45;99889.53;10491720;28;20060;-74
2023/07/23 10:56:33;;;;;;;0.95;0.85;;;;;;;21.71;53.48;99878.25;10491133;28;19921;-74
2023/07/23 11:01:40;;;;;;;0.82;0.80;;;;;;;21.41;53.80;99891.31;10491269;28;20511;-74
2023/07/23 11:07:02;;;;;;;2.65;1.00;;;;;;;21.84;54.15;99885.22;10490509;28;20044;-74
2023/07/23 11:12:07;;;;;;;1.88;1.08;;;;;;;21.89;53.36;99876.53;10490631;28;20037;-74
2023/07/23 11:17:10;;;;;;;1.10;1.00;;;;;;;21.37;53.64;99885.66;10490553;28;20038;-74
2023/07/23 11:22:15;;;;;;;1.42;0.90;;;;;;;21.50;53.14;99889.06;10490140;28;20041;-74
2023/07/23 11:27:18;;;;;;;1.02;0.70;;;;;;;21.11;54.10;99885.53;10490070;28;20049;-74
2023/07/23 11:32:20;;;;;;;1.17;1.08;;;;;;;21.38;53.96;99883.69;10472353;28;20040;-74
2023/07/23 11:37:23;;;;;;;1.90;0.85;;;;;;;21.22;54.77;99879.00;10489887;28;20403;-74
2023/07/23 11:42:25;;;;;;;1.98;1.00;;;;;;;20.70;54.87;99883.19;10480387;28;20491;-74
2023/07/23 11:47:27;;;;;;;2.65;1.33;;;;;;;20.59;55.11;99886.91;10572150;28;20047;-74
2023/07/23 11:52:30;;;;;;;1.10;1.00;;;;;;;20.32;54.68;99886.75;10571989;28;20474;-74
2023/07/23 11:57:32;;;;;;;0.70;0.60;;;;;;;20.60;55.19;99891.31;10571502;28;20059;-74
2023/07/23 12:02:35;;;;;;;2.35;1.10;;;;;;;20.72;53.65;99896.75;10554677;28;20044;-74
2023/07/23 12:07:38;;;;;;;1.48;0.95;;;;;;;20.58;54.22;99900.03;10571784;28;20079;-74
2023/07/23 12:12:44;;;;;;;1.95;1.33;;;;;;;20.47;56.07;99899.00;10571913;28;20036;-74
2023/07/23 12:17:46;;;;;;;2.20;1.00;;;;;;;20.50;54.33;99903.88;10571968;28;20044;-74
2023/07/23 12:22:52;;;;;;;3.63;1.30;;;;;;;20.52;53.67;99889.56;10571366;28;20481;-74
2023/07/23 12:27:54;;;;;;;1.55;0.95;;;;;;;20.20;54.19;99902.75;10570835;28;20552;-74
2023/07/23 12:32:56;;;;;;;1.45;0.77;;;;;;;20.10;53.56;99902.16;10535963;28;20047;-74
2023/07/23 12:37:59;;;;;;;1.98;0.90;;;;;;;20.36;52.79;99900.75;10570351;28;20062;-74
2023/07/23 12:43:01;;;;;;;1.33;0.77;;;;;;;20.38;53.31;99901.97;10570272;28;20047;-74
2023/07/23 12:48:03;;;;;;;2.88;1.15;;;;;;;20.62;51.12;99903.72;10552495;28;20044;-75
2023/07/23 12:53:05;;;;;;;1.73;0.95;;;;;;;20.35;50.74;99893.56;10569841;28;20059;-73
2023/07/23 12:58:08;;;;;;;1.35;0.88;;;;;;;20.24;51.57;99896.09;10547660;28;20047;-74
2023/07/23 13:03:10;;;;;;;1.02;0.90;;;;;;;20.10;52.90;99893.78;10563288;28;20048;-74
2023/07/23 13:08:13;;;;;;;1.58;0.88;;;;;;;19.94;54.24;99895.00;10551782;28;20044;-74
2023/07/23 13:13:15;;;;;;;2.17;0.80;;;;;;;20.13;53.93;99890.31;10569708;28;20047;-74
2023/07/23 13:18:18;;;;;;;4.25;1.42;;;;;;;20.13;51.28;99889.47;10568335;28;20086;-74
2023/07/23 13:23:20;;;;;;;1.13;0.80;;;;;;;20.10;46.93;99882.66;10569298;28;20039;-74
2023/07/23 13:28:22;;;;;;;1.90;0.90;;;;;;;20.07;47.60;99888.16;10569122;28;20051;-74
2023/07/23 13:33:24;;;;;;;2.83;1.00;;;;;;;20.02;47.54;99889.25;10550825;28;20036;-74
2023/07/23 13:38:27;;;;;;;2.08;0.85;;;;;;;19.97;48.63;99892.31;10568667;28;20036;-74
2023/07/23 13:43:29;;;;;;;1.92;1.00;;;;;;;19.97;48.18;99883.16;10550401;28;20051;-74
2023/07/23 13:48:31;;;;;;;6.10;1.77;;;;;;;19.89;49.83;99882.16;10568548;28;20047;-75
2023/07/23 13:53:33;;;;;;;5.28;1.38;;;;;;;19.87;48.83;99882.53;10568472;28;20044;-74
2023/07/23 13:58:35;;;;;;;2.58;1.20;;;;;;;19.79;49.36;99877.97;10568474;28;20047;-74
2023/07/23 14:03:38;;;;;;;2.80;1.27;;;;;;;19.76;51.24;99875.09;10568314;28;20044;-75
2023/07/23 14:08:40;;;;;;;1.52;1.08;;;;;;;19.63;51.36;99876.38;10568573;28;20042;-74
2023/07/23 14:13:42;;;;;;;2.58;0.93;;;;;;;19.56;50.34;99877.81;10572506;28;20047;-74
2023/07/23 14:18:45;;;;;;;3.15;1.20;;;;;;;19.48;49.84;99887.13;10559584;28;20033;-73
2023/07/23 14:23:47;;;;;;;2.40;0.98;;;;;;;19.42;50.05;99877.41;10533367;28;20044;-74
2023/07/23 14:28:50;;;;;;;0.88;0.65;;;;;;;19.35;50.80;99871.69;10533447;28;20049;-73
2023/07/23 14:33:52;;;;;;;1.10;0.98;;;;;;;19.27;52.11;99870.69;10523235;28;20033;-73
2023/07/23 14:38:55;;;;;;;6.78;1.20;;;;;;;19.20;51.42;99864.13;10506589;28;20049;-73
2023/07/23 14:43:59;;;;;;;2.72;1.20;;;;;;;19.14;51.75;99865.56;10483721;28;20047;-73
2023/07/23 14:49:02;;;;;;;1.83;0.95;;;;;;;18.95;52.51;99858.72;10532519;28;20053;-73
2023/07/23 14:54:05;;;;;;;2.70;1.00;;;;;;;18.95;52.59;99852.38;10532296;28;20036;-72
2023/07/23 14:59:07;;;;;;;1.67;1.00;;;;;;;18.95;53.25;99846.81;10532437;28;20499;-73
2023/07/23 15:04:10;;;;;;;2.13;0.98;;;;;;;19.02;52.87;99854.50;10532226;28;20059;-73
2023/07/23 15:09:12;;;;;;;2.67;1.40;;;;;;;19.06;53.24;99852.63;10532226;28;20044;-73
2023/07/23 15:14:14;;;;;;;1.38;1.00;;;;;;;19.05;53.13;99859.34;10525382;28;20384;-73
2023/07/23 15:19:18;;;;;;;2.10;1.02;;;;;;;18.95;53.66;99853.16;10521081;28;20040;-73
2023/07/23 15:24:21;;;;;;;1.27;0.90;;;;;;;18.91;54.64;99841.13;10531512;28;20049;-73
2023/07/23 15:29:30;;;;;;;1.92;0.95;;;;;;;18.87;54.37;99847.75;10530306;28;20596;-74
2023/07/23 15:34:32;;;;;;;1.42;1.00;;;;;;;18.76;54.12;99852.25;10512408;28;20045;-74
2023/07/23 15:39:34;;;;;;;2.95;2.38;;;;;;;18.78;54.53;99852.69;10529221;28;20039;-74
2023/07/23 15:44:36;;;;;;;2.15;1.02;;;;;;;18.81;54.17;99850.00;10513649;28;20078;-74
2023/07/23 15:49:40;;;;;;;3.35;1.77;;;;;;;18.79;54.60;99857.09;10530794;28;20056;-74
2023/07/23 15:54:48;;;;;;;2.50;1.20;;;;;;;18.71;55.18;99856.06;10516884;28;20045;-74
2023/07/23 15:59:50;;;;;;;3.97;1.38;;;;;;;18.75;54.43;99850.63;10502954;28;20047;-74
2023/07/23 16:04:58;;;;;;;2.08;0.98;;;;;;;18.59;54.44;99854.13;10529992;28;20037;-74
2023/07/23 16:10:00;;;;;;;2.40;1.60;;;;;;;18.55;54.72;99855.97;10529680;28;20080;-74
2023/07/23 16:15:02;;;;;;;2.80;1.33;;;;;;;18.39;55.57;99850.38;10520328;28;20032;-74
2023/07/23 16:20:05;;;;;;;3.03;1.48;;;;;;;18.38;55.53;99851.53;10527586;28;20044;-74
2023/07/23 16:25:07;;;;;;;1.83;1.25;;;;;;;18.37;56.12;99861.03;10535193;28;20382;-74
2023/07/23 16:30:10;;;;;;;2.72;1.20;;;;;;;18.33;56.82;99846.22;10565209;28;20063;-74
2023/07/23 16:35:12;;;;;;;1.73;0.90;;;;;;;18.33;56.61;99846.22;10528479;28;20525;-74
2023/07/23 16:40:16;;;;;;;1.42;0.90;;;;;;;18.35;57.40;99846.69;10570855;28;20036;-74
2023/07/23 16:45:19;;;;;;;4.47;1.00;;;;;;;18.29;57.81;99847.28;10563938;28;20506;-74
2023/07/23 16:50:21;;;;;;;1.88;1.20;;;;;;;18.20;58.42;99852.16;10510548;28;20558;-74
2023/07/23 16:55:23;;;;;;;2.28;1.33;;;;;;;18.13;58.75;99841.66;10527933;28;20400;-74
2023/07/23 17:00:25;;;;;;;1.67;0.90;;;;;;;18.10;58.30;99845.16;10509890;28;20045;-74
2023/07/23 17:05:27;;;;;;;1.33;0.77;;;;;;;18.07;58.42;99840.31;10509070;28;20052;-74
2023/07/23 17:10:29;;;;;;;2.05;1.27;;;;;;;18.01;58.61;99844.47;10528299;28;20522;-74
2023/07/23 17:15:31;;;;;;;2.17;1.10;;;;;;;17.93;59.23;99842.66;10526879;28;20045;-74
2023/07/23 17:20:34;;;;;;;1.15;0.90;;;;;;;17.83;59.81;99834.78;10527268;28;20048;-74
2023/07/23 17:25:36;;;;;;;1.30;1.10;;;;;;;17.75;60.46;99840.13;10509420;28;20056;-74
2023/07/23 17:30:38;;;;;;;3.85;1.10;;;;;;;17.65;60.91;99840.56;10529574;28;20048;-74
2023/07/23 17:35:40;;;;;;;2.80;1.35;;;;;;;17.57;61.46;99833.19;10568970;28;20036;-74
2023/07/23 17:40:42;;;;;;;1.30;0.95;;;;;;;17.50;62.06;99827.38;10568486;28;20052;-74
2023/07/23 17:45:45;;;;;;;2.85;0.90;;;;;;;17.44;62.98;99835.13;10568464;28;20048;-74
2023/07/23 17:50:47;;;;;;;2.28;0.82;;;;;;;17.41;63.63;99835.03;10577065;28;20067;-74
2023/07/23 17:55:49;;;;;;;1.10;0.85;;;;;;;17.39;64.26;99840.91;10576490;28;20043;-74
2023/07/23 18:00:51;;;;;;;3.75;1.90;;;;;;;17.31;64.94;99839.06;10577235;28;20035;-74
2023/07/23 18:05:58;;;;;;;1.42;1.00;;;;;;;17.25;65.68;99839.63;10555973;28;20033;-74
2023/07/23 18:11:04;;;;;;;0.90;0.85;;;;;;;17.17;66.47;99835.78;10530286;28;20051;-74
2023/07/23 18:16:07;;;;;;;1.23;0.80;;;;;;;17.11;66.50;99834.41;10516079;28;20036;-75
2023/07/23 18:21:09;;;;;;;2.47;1.00;;;;;;;17.03;66.79;99840.88;10531169;28;20067;-74
2023/07/23 18:26:12;;;;;;;1.88;1.10;;;;;;;17.02;66.95;99844.81;10538573;28;20471;-75
2023/07/23 18:31:15;;;;;;;4.45;1.50;;;;;;;16.91;67.12;99840.84;10527681;28;20044;-75
2023/07/23 18:36:18;;;;;;;2.75;1.33;;;;;;;16.78;67.80;99845.53;10515555;28;20051;-74
2023/07/23 18:41:28;;;;;;;2.28;1.17;;;;;;;16.75;67.85;99847.03;10533591;28;20144;-74
2023/07/23 18:46:30;;;;;;;3.53;1.88;;;;;;;16.64;67.98;99833.91;10533446;28;20055;-75
2023/07/23 18:51:32;;;;;;;3.00;1.25;;;;;;;16.58;68.50;99836.09;10530115;28;20044;-74
2023/07/23 18:56:35;;;;;;;4.07;1.73;;;;;;;16.53;68.65;99836.31;10532771;28;20036;-75
2023/07/23 19:01:38;;;;;;;3.38;1.77;;;;;;;16.42;69.53;99833.16;10480128;28;20082;-75
2023/07/23 19:06:40;;;;;;;2.75;1.60;;;;;;;16.33;69.69;99846.28;10531135;28;20378;-75
2023/07/23 19:11:43;;;;;;;2.70;1.92;;;;;;;16.24;70.51;99837.22;10531341;28;20509;-74
2023/07/23 19:16:45;;;;;;;2.17;1.67;;;;;;;16.18;71.11;99844.13;10496217;28;20036;-75
2023/07/23 19:21:47;;;;;;;3.58;2.10;;;;;;;16.20;71.09;99839.06;10530503;28;20430;-75
2023/07/23 19:26:50;;;;;;;4.10;2.00;;;;;;;16.19;71.90;99829.13;10530341;28;20041;-74
2023/07/23 19:31:52;;;;;;;3.00;1.73;;;;;;;16.21;72.45;99829.59;10529746;28;20078;-74
2023/07/23 19:36:54;;;;;;;1.58;1.25;;;;;;;16.20;73.19;99825.22;10513584;28;20041;-75
2023/07/23 19:41:57;;;;;;;2.70;1.23;;;;;;;16.24;73.59;99820.63;10531084;28;20047;-75
2023/07/23 19:46:59;;;;;;;2.00;1.30;;;;;;;16.24;74.02;99815.06;10487512;28;20036;-75
2023/07/23 19:52:01;;;;;;;6.60;3.08;;;;;;;16.20;74.39;99814.94;10525577;28;20048;-75
2023/07/23 19:57:03;;;;;;;2.03;1.48;;;;;;;16.22;74.39;99814.59;10518853;28;20517;-75
2023/07/23 20:02:05;;;;;;;3.63;1.20;;;;;;;16.25;75.16;99811.16;10504227;28;20032;-75
2023/07/23 20:07:08;;;;;;;3.60;1.27;;;;;;;16.20;75.41;99814.13;10525705;28;20041;-75
2023/07/23 20:12:10;;;;;;;2.90;1.30;;;;;;;16.15;76.00;99814.34;10510529;28;20446;-75
2023/07/23 20:17:13;;;;;;;2.47;1.08;;;;;;;16.08;76.64;99808.53;10520548;28;20487;-75
2023/07/23 20:22:15;;;;;;;1.20;1.00;;;;;;;16.06;76.41;99805.31;10510939;28;20036;-76
2023/07/23 20:27:17;;;;;;;1.38;0.90;;;;;;;16.08;76.35;99805.75;10523771;28;20033;-76
2023/07/23 20:32:20;;;;;;;1.67;1.30;;;;;;;16.11;76.02;99808.66;10515407;28;20059;-75
2023/07/23 20:37:23;;;;;;;1.60;1.35;;;;;;;16.01;75.56;99811.03;10533978;28;20044;-75
2023/07/23 20:42:26;;;;;;;1.65;0.98;;;;;;;15.98;75.90;99810.56;10516794;28;20045;-77
2023/07/23 20:47:28;;;;;;;1.77;0.93;;;;;;;16.00;74.86;99810.25;10526698;28;20044;-75
2023/07/23 20:52:30;;;;;;;1.17;0.80;;;;;;;15.98;74.26;99807.81;10523182;28;20056;-75
2023/07/23 20:57:38;;;;;;;0.90;0.90;;;;;;;15.94;74.30;99811.56;10496303;28;20055;-75
2023/07/23 21:02:40;;;;;;;;;;;;;;;15.91;73.34;99806.72;10502837;28;20112;-74
2023/07/23 21:07:42;;;;;;;4.78;2.50;;;;;;;15.95;72.89;99808.47;10524265;28;19920;-74
2023/07/23 21:12:44;;;;;;;1.85;1.10;;;;;;;15.95;72.38;99813.19;10524340;28;20032;-73
2023/07/23 21:17:46;;;;;;;1.52;0.90;;;;;;;15.87;72.70;99805.78;10496333;28;20048;-73
2023/07/23 21:22:49;;;;;;;0.93;0.80;;;;;;;15.83;73.25;99802.88;10499722;28;20036;-73
2023/07/23 21:27:51;;;;;;;0.70;0.70;;;;;;;15.83;73.59;99802.06;10526517;28;20074;-74
2023/07/23 21:32:53;;;;;;;1.95;0.98;;;;;;;15.77;74.21;99801.44;10493551;28;20063;-74
2023/07/23 21:37:55;;;;;;;1.20;0.98;;;;;;;15.72;75.27;99798.06;10542649;28;20048;-74
2023/07/23 21:42:58;;;;;;;1.90;0.82;;;;;;;15.65;76.46;99806.91;10525691;28;20052;-73
2023/07/23 21:48:00;;;;;;;1.55;0.90;;;;;;;15.60;77.25;99812.63;10523565;28;20040;-73
2023/07/23 21:53:02;;;;;;;0.77;0.75;;;;;;;15.53;77.82;99807.59;10532844;28;20048;-74
2023/07/23 21:58:05;;;;;;;1.17;0.93;;;;;;;15.52;78.68;99805.97;10566144;28;20047;-73
2023/07/23 22:03:08;;;;;;;1.95;1.10;;;;;;;15.55;79.04;99805.28;10562726;28;20044;-73
2023/07/23 22:08:10;;;;;;;1.58;1.00;;;;;;;15.50;78.79;99796.41;10560832;28;20040;-74
2023/07/23 22:13:13;;;;;;;0.60;0.60;;;;;;;15.47;78.88;99797.06;10520687;28;20032;-74
2023/07/23 22:18:15;;;;;;;1.35;0.80;;;;;;;15.35;79.22;99782.00;10521186;28;20048;-73
2023/07/23 22:23:17;;;;;;;1.98;0.82;;;;;;;15.37;78.92;99788.00;10518098;28;20040;-73
2023/07/23 22:28:20;;;;;;;1.33;0.93;;;;;;;15.34;79.05;99788.66;10520191;28;20072;-74
2023/07/23 22:33:23;;;;;;;1.15;0.73;;;;;;;15.32;79.61;99784.63;10520268;28;20064;-74
2023/07/23 22:38:25;;;;;;;1.13;0.88;;;;;;;15.31;80.06;99778.28;10531231;28;20116;-74
2023/07/23 22:43:27;;;;;;;0.65;0.60;;;;;;;15.25;80.29;99763.00;10512736;28;20514;-74
2023/07/23 22:48:30;;;;;;;2.83;0.75;;;;;;;15.17;80.94;99765.84;10529445;28;20068;-74
2023/07/23 22:53:32;;;;;;;2.13;0.80;;;;;;;15.08;80.79;99771.41;10530282;28;20052;-74
2023/07/23 22:58:35;;;;;;;3.42;1.05;;;;;;;15.04;81.12;99762.97;10508603;28;20174;-74
2023/07/23 23:03:39;;;;;;;0.52;0.52;;;;;;;15.04;80.74;99762.16;10527215;28;20049;-75
2023/07/23 23:08:41;;;;;;;1.80;0.80;;;;;;;15.00;80.80;99761.22;10529690;28;20044;-74
2023/07/23 23:13:44;;;;;;;0.70;0.70;;;;;;;14.97;81.38;99750.81;10526473;28;20517;-74
2023/07/23 23:18:46;;;;;;;0.85;0.60;;;;;;;14.84;81.99;99746.31;10529493;28;20067;-74
2023/07/23 23:23:48;;;;;;;1.20;0.73;;;;;;;14.86;82.47;99739.31;10527699;28;20506;-75
2023/07/23 23:28:50;;;;;;;1.35;0.68;;;;;;;14.80;82.19;99735.13;10528599;28;20471;-75
2023/07/23 23:33:52;;;;;;;0.65;0.65;;;;;;;14.79;81.62;99736.28;10523244;28;20048;-75